createdAt,value
2023-05-14T00:01:32.760Z,2.60
2023-05-14T00:04:01.454Z,2.40
2023-05-14T00:06:33.768Z,2.35
2023-05-14T00:09:04.947Z,2.53
2023-05-14T00:11:36.483Z,2.35
2023-05-14T00:14:12.301Z,2.17
2023-05-14T00:16:40.802Z,2.20
2023-05-14T00:19:11.377Z,2.05
2023-05-14T00:21:42.364Z,1.73
2023-05-14T00:24:10.920Z,1.85
2023-05-14T00:26:42.086Z,2.15
2023-05-14T00:29:11.466Z,2.08
2023-05-14T00:31:41.627Z,2.33
2023-05-14T00:34:12.899Z,1.90
2023-05-14T00:36:41.288Z,2.03
2023-05-14T00:39:09.934Z,2.25
2023-05-14T00:41:38.169Z,2.03
2023-05-14T00:44:06.466Z,1.80
2023-05-14T00:46:34.949Z,1.50
2023-05-14T00:49:03.739Z,1.45
2023-05-14T00:51:32.329Z,1.80
2023-05-14T00:54:01.319Z,1.65
2023-05-14T00:56:32.636Z,1.48
2023-05-14T00:59:01.452Z,1.60
2023-05-14T01:01:29.923Z,1.42
2023-05-14T01:03:59.017Z,1.70
2023-05-14T01:07:11.916Z,1.40
2023-05-14T01:09:54.437Z,1.50
2023-05-14T01:12:48.826Z,1.65
2023-05-14T01:15:31.138Z,1.85
2023-05-14T01:18:09.072Z,2.03
2023-05-14T01:20:40.318Z,1.52
2023-05-14T01:23:09.521Z,1.42
2023-05-14T01:25:38.454Z,1.40
2023-05-14T01:28:13.433Z,1.40
2023-05-14T01:30:52.569Z,1.60
2023-05-14T01:33:22.961Z,1.42
2023-05-14T01:35:53.967Z,1.20
2023-05-14T01:38:24.353Z,1.30
2023-05-14T01:40:54.657Z,1.75
2023-05-14T01:43:23.668Z,2.00
2023-05-14T01:45:52.046Z,2.00
2023-05-14T01:48:20.301Z,2.10
2023-05-14T01:50:48.687Z,1.95
2023-05-14T01:53:17.408Z,2.03
2023-05-14T01:55:45.652Z,1.95
2023-05-14T01:58:15.023Z,1.80
2023-05-14T02:00:43.459Z,1.60
2023-05-14T02:03:11.823Z,1.70
2023-05-14T02:05:40.734Z,1.85
2023-05-14T02:08:09.337Z,1.33
2023-05-14T02:10:37.637Z,1.60
2023-05-14T02:13:06.120Z,2.08
2023-05-14T02:15:34.529Z,1.52
2023-05-14T02:18:03.226Z,1.60
2023-05-14T02:20:31.790Z,1.70
2023-05-14T02:23:00.149Z,1.60
2023-05-14T02:25:28.566Z,1.67
2023-05-14T02:27:56.899Z,1.90
2023-05-14T02:30:25.286Z,1.50
2023-05-14T02:32:56.311Z,1.60
2023-05-14T02:35:25.921Z,1.50
2023-05-14T02:37:54.664Z,1.55
2023-05-14T02:40:23.259Z,2.00
2023-05-14T02:42:51.823Z,2.03
2023-05-14T02:45:20.362Z,2.00
2023-05-14T02:47:49.083Z,1.60
2023-05-14T02:50:17.388Z,1.77
2023-05-14T02:52:47.754Z,1.98
2023-05-14T02:55:16.065Z,1.52
2023-05-14T02:57:44.589Z,1.80
2023-05-14T03:00:13.486Z,1.70
2023-05-14T03:02:43.727Z,1.70
2023-05-14T03:05:15.103Z,1.50
2023-05-14T03:07:43.977Z,1.55
2023-05-14T03:10:12.786Z,1.90
2023-05-14T03:12:42.148Z,1.73
2023-05-14T03:15:11.091Z,1.95
2023-05-14T03:17:39.878Z,1.60
2023-05-14T03:20:08.706Z,1.50
2023-05-14T03:22:37.338Z,1.20
2023-05-14T03:25:06.560Z,1.38
2023-05-14T03:27:36.770Z,1.40
2023-05-14T03:30:06.069Z,1.30
2023-05-14T03:32:34.647Z,1.58
2023-05-14T03:35:03.083Z,1.27
2023-05-14T03:37:31.383Z,1.65
2023-05-14T03:40:00.074Z,1.70
2023-05-14T03:42:28.365Z,2.47
2023-05-14T03:44:59.653Z,2.42
2023-05-14T03:47:29.623Z,2.70
2023-05-14T03:50:01.553Z,2.28
2023-05-14T03:52:34.429Z,2.50
2023-05-14T03:55:04.799Z,2.35
2023-05-14T03:57:33.839Z,1.90
2023-05-14T04:00:08.342Z,2.20
2023-05-14T04:02:45.878Z,2.13
2023-05-14T04:05:17.224Z,2.10
2023-05-14T04:07:47.314Z,1.48
2023-05-14T04:10:16.383Z,1.60
2023-05-14T04:12:46.712Z,2.00
2023-05-14T04:15:16.285Z,1.38
2023-05-14T04:17:45.324Z,1.40
2023-05-14T04:20:14.817Z,1.40
2023-05-14T04:22:46.839Z,1.40
2023-05-14T04:25:18.814Z,1.30
2023-05-14T04:27:47.622Z,1.10
2023-05-14T04:30:16.698Z,1.30
2023-05-14T04:32:46.043Z,1.10
2023-05-14T04:35:18.652Z,1.08
2023-05-14T04:37:49.568Z,1.35
2023-05-14T04:40:25.663Z,1.20
2023-05-14T04:42:54.609Z,1.20
2023-05-14T04:45:23.484Z,1.20
2023-05-14T04:47:55.206Z,1.25
2023-05-14T04:50:25.785Z,1.30
2023-05-14T04:52:56.115Z,1.40
2023-05-14T04:55:25.190Z,1.05
2023-05-14T04:57:55.755Z,1.10
2023-05-14T05:00:30.960Z,0.98
2023-05-14T05:03:02.346Z,1.13
2023-05-14T05:05:37.034Z,1.10
2023-05-14T05:08:06.296Z,1.30
2023-05-14T05:10:39.060Z,1.10
2023-05-14T05:13:11.207Z,1.40
2023-05-14T05:15:42.632Z,1.05
2023-05-14T05:18:11.712Z,1.20
2023-05-14T05:20:43.039Z,1.10
2023-05-14T05:23:24.204Z,1.15
2023-05-14T05:25:56.067Z,1.10
2023-05-14T05:28:27.561Z,1.15
2023-05-14T05:30:56.742Z,1.23
2023-05-14T05:33:25.780Z,1.30
2023-05-14T05:35:54.548Z,1.08
2023-05-14T05:38:23.766Z,1.33
2023-05-14T05:40:53.062Z,1.05
2023-05-14T05:43:29.264Z,1.17
2023-05-14T05:45:58.842Z,1.15
2023-05-14T05:48:29.886Z,1.00
2023-05-14T05:51:00.139Z,1.02
2023-05-14T05:53:33.787Z,1.00
2023-05-14T05:56:06.330Z,1.23
2023-05-14T05:58:35.062Z,1.10
2023-05-14T06:01:05.031Z,1.10
2023-05-14T06:03:33.706Z,1.17
2023-05-14T06:06:03.700Z,1.23
2023-05-14T06:08:34.772Z,1.60
2023-05-14T06:11:05.151Z,2.30
2023-05-14T06:13:33.889Z,2.28
2023-05-14T06:16:02.609Z,2.72
2023-05-14T06:18:33.062Z,2.10
2023-05-14T06:21:01.850Z,1.60
2023-05-14T06:23:30.813Z,2.03
2023-05-14T06:25:59.406Z,1.50
2023-05-14T06:28:28.252Z,1.77
2023-05-14T06:30:58.850Z,1.52
2023-05-14T06:33:31.338Z,1.27
2023-05-14T06:36:05.734Z,1.20
2023-05-14T06:38:34.914Z,0.77
2023-05-14T06:41:03.786Z,1.13
2023-05-14T06:43:34.785Z,1.02
2023-05-14T06:46:03.150Z,3.42
2023-05-14T06:48:31.954Z,6.70
2023-05-14T06:51:01.233Z,8.27
2023-05-14T06:53:29.890Z,7.05
2023-05-14T06:55:59.066Z,7.32
2023-05-14T06:58:29.107Z,5.57
2023-05-14T07:00:59.473Z,4.47
2023-05-14T07:03:29.547Z,3.63
2023-05-14T07:08:51.667Z,3.85
2023-05-14T07:11:22.809Z,3.97
2023-05-14T07:13:51.792Z,3.15
2023-05-14T07:16:21.091Z,2.75
2023-05-14T07:18:49.669Z,2.80
2023-05-14T07:21:19.843Z,2.90
2023-05-14T07:23:48.780Z,3.45
2023-05-14T07:26:18.545Z,3.75
2023-05-14T07:28:48.493Z,3.67
2023-05-14T07:31:17.286Z,3.10
2023-05-14T07:33:56.206Z,3.30
2023-05-14T07:36:28.540Z,4.13
2023-05-14T07:41:56.944Z,3.80
2023-05-14T07:44:25.045Z,3.42
2023-05-14T07:46:54.631Z,4.10
2023-05-14T07:49:23.902Z,4.55
2023-05-14T07:51:52.748Z,4.38
2023-05-14T07:54:21.401Z,4.78
2023-05-14T07:56:50.074Z,3.65
2023-05-14T07:59:19.731Z,4.40
2023-05-14T08:24:03.197Z,3.33
2023-05-14T08:39:25.859Z,2.40
2023-05-14T08:54:39.318Z,4.72
2023-05-14T08:57:11.617Z,3.08
2023-05-14T08:59:52.955Z,2.40
2023-05-14T09:02:41.896Z,2.15
2023-05-14T09:08:44.605Z,1.50
2023-05-14T09:11:49.400Z,1.75
2023-05-14T09:14:55.995Z,1.38
2023-05-14T09:17:59.676Z,1.73
2023-05-14T09:21:10.501Z,1.45
2023-05-14T09:24:04.887Z,1.20
2023-05-14T09:26:36.373Z,1.30
2023-05-14T09:29:07.464Z,1.42
2023-05-14T09:31:37.693Z,1.25
2023-05-14T09:34:09.733Z,1.38
2023-05-14T09:36:41.245Z,1.17
2023-05-14T09:39:10.018Z,1.58
2023-05-14T09:41:42.147Z,1.38
2023-05-14T09:44:11.324Z,1.75
2023-05-14T09:46:39.814Z,1.63
2023-05-14T09:49:08.267Z,2.10
2023-05-14T09:51:38.006Z,1.85
2023-05-14T09:54:06.835Z,2.17
2023-05-14T09:56:35.797Z,2.30
2023-05-14T09:59:06.939Z,2.40
2023-05-14T10:01:36.677Z,2.50
2023-05-14T10:04:08.061Z,2.70
2023-05-14T10:06:42.738Z,3.40
2023-05-14T10:09:14.145Z,4.32
2023-05-14T10:11:45.543Z,4.40
2023-05-14T10:14:43.579Z,3.95
2023-05-14T10:19:58.782Z,2.90
2023-05-14T10:25:45.316Z,3.08
2023-05-14T10:28:14.615Z,3.50
2023-05-14T10:30:50.200Z,3.50
2023-05-14T10:33:19.963Z,7.32
2023-05-14T10:36:08.119Z,15.43
2023-05-14T10:38:38.019Z,11.68
2023-05-14T10:41:12.629Z,10.30
2023-05-14T10:43:42.461Z,7.65
2023-05-14T10:46:18.274Z,6.35
2023-05-14T10:48:49.267Z,5.53
2023-05-14T10:51:21.178Z,4.13
2023-05-14T10:53:50.006Z,4.15
2023-05-14T10:56:22.540Z,3.22
2023-05-14T10:58:59.039Z,3.50
2023-05-14T11:01:29.483Z,2.88
2023-05-14T11:04:04.552Z,3.45
2023-05-14T11:06:53.614Z,3.70
2023-05-14T11:09:31.894Z,5.88
2023-05-14T11:12:21.821Z,6.10
2023-05-14T11:15:33.305Z,4.25
2023-05-14T11:18:55.156Z,4.28
2023-05-14T11:21:31.111Z,4.45
2023-05-14T11:24:18.685Z,5.10
2023-05-14T11:26:57.126Z,4.38
2023-05-14T11:29:38.596Z,3.75
2023-05-14T11:32:53.988Z,2.78
2023-05-14T11:35:36.436Z,3.65
2023-05-14T11:40:21.303Z,3.78
2023-05-14T11:41:37.769Z,3.22
2023-05-14T11:44:09.899Z,2.90
2023-05-14T11:46:58.079Z,1.75
2023-05-14T11:49:36.480Z,2.00
2023-05-14T11:52:14.965Z,2.65
2023-05-14T11:54:54.365Z,3.20
2023-05-14T11:57:28.222Z,3.17
2023-05-14T12:00:27.840Z,3.50
2023-05-14T12:03:30.152Z,3.97
2023-05-14T12:06:19.762Z,3.90
2023-05-14T12:10:08.799Z,4.75
2023-05-14T12:12:55.439Z,3.45
2023-05-14T12:15:30.626Z,2.97
2023-05-14T12:18:02.044Z,2.83
2023-05-14T12:20:47.935Z,3.10
2023-05-14T12:23:34.370Z,4.40
2023-05-14T12:26:15.624Z,11.18
2023-05-14T12:28:51.832Z,10.93
2023-05-14T12:31:36.233Z,22.67
2023-05-14T12:37:22.896Z,23.08
2023-05-14T12:40:24.742Z,18.98
2023-05-14T12:43:04.805Z,13.02
2023-05-14T12:45:40.684Z,9.60
2023-05-14T12:48:10.879Z,8.57
2023-05-14T12:50:53.662Z,4.93
2023-05-14T12:53:27.007Z,4.20
2023-05-14T12:56:06.950Z,3.63
2023-05-14T12:58:38.491Z,3.28
2023-05-14T13:01:18.294Z,2.30
2023-05-14T13:03:58.231Z,2.50
2023-05-14T13:06:34.441Z,2.72
2023-05-14T13:09:09.109Z,2.35
2023-05-14T13:11:39.914Z,2.20
2023-05-14T13:14:11.135Z,1.85
2023-05-14T13:16:43.131Z,1.98
2023-05-14T13:19:14.919Z,1.52
2023-05-14T13:21:43.950Z,1.60
2023-05-14T13:24:17.722Z,2.28
2023-05-14T13:26:55.013Z,1.90
2023-05-14T13:29:27.990Z,2.38
2023-05-14T13:32:09.968Z,2.42
2023-05-14T13:34:45.385Z,2.70
2023-05-14T13:37:46.240Z,3.58
2023-05-14T13:40:24.709Z,4.40
2023-05-14T13:43:10.847Z,4.43
2023-05-14T13:45:49.257Z,5.18
2023-05-14T13:48:25.422Z,4.70
2023-05-14T13:50:59.258Z,4.28
2023-05-14T13:53:43.939Z,3.35
2023-05-14T13:56:12.848Z,5.22
2023-05-14T13:58:43.892Z,4.28
2023-05-14T14:01:30.986Z,3.90
2023-05-14T14:04:07.152Z,3.72
2023-05-14T14:06:36.751Z,4.05
2023-05-14T14:09:11.326Z,3.20
2023-05-14T14:11:42.354Z,3.08
2023-05-14T14:14:44.262Z,3.38
2023-05-14T14:17:18.148Z,3.20
2023-05-14T14:19:46.954Z,3.60
2023-05-14T14:22:28.956Z,3.63
2023-05-14T14:25:08.524Z,3.63
2023-05-14T14:27:43.977Z,2.92
2023-05-14T14:30:28.032Z,2.67
2023-05-14T14:33:06.228Z,2.95
2023-05-14T14:35:49.421Z,3.78
2023-05-14T14:38:31.116Z,3.55
2023-05-14T14:41:00.358Z,3.33
2023-05-14T14:43:51.639Z,2.80
2023-05-14T14:46:25.645Z,2.72
2023-05-14T14:49:04.374Z,2.33
2023-05-14T14:51:38.720Z,2.50
2023-05-14T14:54:08.546Z,2.70
2023-05-14T14:56:38.598Z,2.60
2023-05-14T14:59:10.094Z,3.40
2023-05-14T15:01:52.844Z,3.15
2023-05-14T15:04:27.345Z,3.20
2023-05-14T15:07:02.067Z,2.80
2023-05-14T15:09:36.878Z,2.70
2023-05-14T15:12:15.086Z,2.80
2023-05-14T15:14:53.744Z,2.65
2023-05-14T15:17:29.195Z,2.28
2023-05-14T15:20:06.306Z,2.55
2023-05-14T15:22:38.624Z,3.78
2023-05-14T15:25:20.359Z,5.50
2023-05-14T15:27:57.621Z,13.50
2023-05-14T15:30:30.635Z,16.52
2023-05-14T15:33:08.869Z,13.10
2023-05-14T15:35:51.352Z,10.00
2023-05-14T15:38:28.405Z,8.80
2023-05-14T15:41:08.176Z,8.65
2023-05-14T15:43:48.792Z,10.10
2023-05-14T15:46:59.457Z,8.25
2023-05-14T15:49:37.148Z,6.25
2023-05-14T15:52:16.045Z,5.32
2023-05-14T15:54:59.829Z,3.92
2023-05-14T15:57:35.241Z,3.40
2023-05-14T16:00:18.943Z,2.92
2023-05-14T16:02:47.649Z,3.38
2023-05-14T16:05:17.638Z,3.03
2023-05-14T16:07:51.430Z,2.50
2023-05-14T16:10:26.328Z,2.05
2023-05-14T16:12:58.926Z,1.40
2023-05-14T16:15:29.322Z,1.48
2023-05-14T16:17:58.753Z,1.30
2023-05-14T16:20:29.931Z,1.10
2023-05-14T16:23:01.034Z,1.10
2023-05-14T16:25:33.005Z,1.30
2023-05-14T16:28:02.224Z,1.40
2023-05-14T16:30:39.489Z,1.33
2023-05-14T16:33:08.225Z,1.55
2023-05-14T16:35:41.684Z,3.55
2023-05-14T16:38:16.034Z,5.60
2023-05-14T16:40:45.318Z,6.47
2023-05-14T16:43:22.299Z,7.57
2023-05-14T16:45:57.723Z,6.68
2023-05-14T16:48:28.138Z,4.90
2023-05-14T16:51:04.154Z,4.80
2023-05-14T16:53:33.053Z,4.00
2023-05-14T16:56:10.171Z,3.40
2023-05-14T16:58:42.423Z,2.85
2023-05-14T17:01:17.299Z,2.58
2023-05-14T17:03:53.173Z,2.00
2023-05-14T17:06:29.797Z,1.80
2023-05-14T17:09:01.453Z,1.80
2023-05-14T17:11:30.258Z,2.88
2023-05-14T17:13:59.100Z,3.47
2023-05-14T17:16:30.962Z,3.72
2023-05-14T17:19:05.596Z,4.65
2023-05-14T17:21:36.968Z,4.50
2023-05-14T17:25:10.192Z,3.38
2023-05-14T17:27:47.060Z,3.00
2023-05-14T17:30:25.537Z,3.22
2023-05-14T17:32:56.544Z,3.27
2023-05-14T17:35:31.515Z,3.42
2023-05-14T17:38:01.079Z,3.85
2023-05-14T17:40:34.315Z,3.42
2023-05-14T17:43:10.192Z,2.92
2023-05-14T17:45:53.929Z,3.38
2023-05-14T17:51:00.342Z,4.93
2023-05-14T17:53:45.677Z,5.07
2023-05-14T17:56:23.238Z,4.20
2023-05-14T17:59:06.373Z,3.85
2023-05-14T18:01:41.156Z,3.30
2023-05-14T18:04:13.195Z,3.00
2023-05-14T18:06:52.084Z,2.60
2023-05-14T18:09:36.741Z,2.83
2023-05-14T18:12:13.870Z,2.50
2023-05-14T18:14:50.321Z,2.33
2023-05-14T18:17:30.471Z,3.08
2023-05-14T18:20:14.037Z,4.93
2023-05-14T18:25:50.944Z,10.60
2023-05-14T18:28:21.826Z,8.77
2023-05-14T18:31:06.126Z,5.93
2023-05-14T18:33:53.005Z,5.05
2023-05-14T18:36:35.443Z,4.60
2023-05-14T18:39:15.718Z,5.07
2023-05-14T18:41:59.730Z,4.55
2023-05-14T18:44:45.651Z,3.70
2023-05-14T18:48:07.421Z,4.13
2023-05-14T18:50:45.258Z,3.60
2023-05-14T18:53:21.005Z,4.53
2023-05-14T18:56:00.687Z,5.35
2023-05-14T18:58:35.951Z,5.30
2023-05-14T19:01:27.107Z,5.18
2023-05-14T19:07:58.525Z,3.58
2023-05-14T19:10:30.173Z,4.13
2023-05-14T19:13:00.310Z,14.07
2023-05-14T19:15:34.444Z,16.85
2023-05-14T19:18:13.324Z,17.08
2023-05-14T19:20:45.811Z,15.45
2023-05-14T19:23:14.873Z,11.93
2023-05-14T19:25:51.452Z,9.70
2023-05-14T19:28:28.753Z,7.78
2023-05-14T19:31:17.541Z,7.18
2023-05-14T19:33:48.605Z,6.07
2023-05-14T19:36:22.787Z,7.45
2023-05-14T19:39:00.374Z,8.52
2023-05-14T19:41:58.607Z,8.88
2023-05-14T19:47:24.361Z,9.27
2023-05-14T19:50:06.056Z,9.20
2023-05-14T19:52:47.499Z,8.57
2023-05-14T19:55:21.325Z,7.50
2023-05-14T19:58:04.480Z,7.53
2023-05-14T20:00:44.890Z,6.13
2023-05-14T20:03:22.111Z,5.72
2023-05-14T20:05:57.659Z,4.53
2023-05-14T20:08:31.233Z,3.90
2023-05-14T20:11:05.382Z,4.05
2023-05-14T20:13:41.465Z,3.83
2023-05-14T20:16:13.432Z,4.10
2023-05-14T20:18:45.571Z,3.42
2023-05-14T20:21:22.466Z,2.90
2023-05-14T20:24:03.159Z,2.80
2023-05-14T20:26:37.701Z,2.80
2023-05-14T20:33:32.614Z,3.25
2023-05-14T20:36:09.410Z,4.07
2023-05-14T20:38:53.530Z,3.80
2023-05-14T20:41:35.377Z,4.28
2023-05-14T20:44:13.784Z,4.40
2023-05-14T20:46:50.272Z,3.92
2023-05-14T20:49:40.375Z,4.43
2023-05-14T20:52:23.120Z,3.63
2023-05-14T20:55:02.006Z,3.88
2023-05-14T20:57:46.707Z,4.13
2023-05-14T21:00:20.081Z,4.28
2023-05-14T21:03:01.811Z,3.90
2023-05-14T21:05:36.251Z,3.78
2023-05-14T21:08:09.876Z,4.07
2023-05-14T21:10:48.159Z,3.20
2023-05-14T21:13:17.860Z,3.17
2023-05-14T21:15:49.607Z,3.70
2023-05-14T21:18:59.248Z,3.70
2023-05-14T21:21:33.854Z,2.83
2023-05-14T21:24:09.320Z,3.30
2023-05-14T21:26:54.177Z,2.80
2023-05-14T21:29:26.801Z,3.00
2023-05-14T21:32:12.169Z,2.80
2023-05-14T21:34:52.240Z,3.30
2023-05-14T21:37:33.667Z,3.95
2023-05-14T21:40:28.142Z,4.35
2023-05-14T21:46:05.572Z,5.90
2023-05-14T21:48:46.685Z,6.95
2023-05-14T21:51:29.320Z,6.40
2023-05-14T21:54:09.286Z,6.50
2023-05-14T21:56:57.196Z,6.82
2023-05-14T21:59:41.014Z,6.65
2023-05-14T22:04:52.608Z,5.18
2023-05-14T22:07:24.379Z,4.90
2023-05-14T22:09:55.135Z,4.63
2023-05-14T22:12:27.151Z,4.85
2023-05-14T22:15:04.563Z,3.85
2023-05-14T22:17:36.507Z,4.22
2023-05-14T22:20:10.456Z,4.28
2023-05-14T22:22:52.682Z,4.10
2023-05-14T22:25:26.696Z,3.97
2023-05-14T22:27:57.911Z,3.53
2023-05-14T22:30:34.110Z,3.50
2023-05-14T22:33:10.929Z,4.20
2023-05-14T22:35:43.686Z,4.40
2023-05-14T22:38:23.558Z,4.88
2023-05-14T22:40:53.112Z,5.25
2023-05-14T22:43:24.445Z,4.47
2023-05-14T22:45:58.644Z,3.63
2023-05-14T22:48:28.251Z,4.05
2023-05-14T22:50:57.498Z,4.53
2023-05-14T22:53:30.149Z,5.20
2023-05-14T22:56:02.136Z,5.28
2023-05-14T22:58:33.359Z,5.78
2023-05-14T23:01:04.651Z,4.88
2023-05-14T23:03:35.001Z,4.97
2023-05-14T23:06:03.766Z,4.53
2023-05-14T23:08:36.323Z,3.50
2023-05-14T23:11:05.030Z,3.30
2023-05-14T23:13:36.522Z,2.78
2023-05-14T23:16:09.417Z,2.83
2023-05-14T23:18:38.565Z,2.78
2023-05-14T23:21:10.419Z,4.03
2023-05-14T23:23:40.649Z,7.28
2023-05-14T23:26:09.268Z,7.50
2023-05-14T23:28:37.654Z,7.03
2023-05-14T23:31:07.567Z,6.18
2023-05-14T23:33:40.383Z,5.05
2023-05-14T23:36:10.022Z,4.45
2023-05-14T23:38:44.087Z,3.58
2023-05-14T23:41:20.844Z,3.85
2023-05-14T23:43:56.056Z,3.45
2023-05-14T23:46:26.618Z,3.03
2023-05-14T23:49:01.338Z,2.78
2023-05-14T23:51:32.300Z,2.83
2023-05-14T23:54:05.717Z,2.90
2023-05-14T23:56:41.631Z,3.08
2023-05-14T23:59:18.902Z,2.83
